createdAt,value
2023-02-14T00:00:30.450Z,69.50
2023-02-14T00:02:57.352Z,74.43
2023-02-14T00:05:24.360Z,71.50
2023-02-14T00:07:51.044Z,69.10
2023-02-14T00:10:17.903Z,68.85
2023-02-14T00:12:44.595Z,67.85
2023-02-14T00:15:23.342Z,67.93
2023-02-14T00:17:55.885Z,73.75
2023-02-14T00:20:23.340Z,73.22
2023-02-14T00:22:50.114Z,81.32
2023-02-14T00:25:17.293Z,78.75
2023-02-14T00:27:43.995Z,76.70
2023-02-14T00:30:12.384Z,75.22
2023-02-14T00:32:42.789Z,81.72
2023-02-14T00:35:10.814Z,74.15
2023-02-14T00:37:37.472Z,79.00
2023-02-14T00:40:05.922Z,75.65
2023-02-14T00:42:32.648Z,74.75
2023-02-14T00:44:59.343Z,74.97
2023-02-14T00:47:26.164Z,74.45
2023-02-14T00:49:52.898Z,73.60
2023-02-14T00:52:19.587Z,73.18
2023-02-14T00:54:46.275Z,77.47
2023-02-14T00:57:13.030Z,83.32
2023-02-14T00:59:39.730Z,86.60
2023-02-14T01:02:06.531Z,84.97
2023-02-14T01:04:33.316Z,90.05
2023-02-14T01:07:00.011Z,82.75
2023-02-14T01:09:26.669Z,88.95
2023-02-14T01:11:53.450Z,80.68
2023-02-14T01:14:20.114Z,80.28
2023-02-14T01:16:46.841Z,85.25
2023-02-14T01:19:13.562Z,79.32
2023-02-14T01:21:41.307Z,81.20
2023-02-14T01:24:08.644Z,79.88
2023-02-14T01:26:35.509Z,80.68
2023-02-14T01:29:03.633Z,71.70
2023-02-14T01:31:32.688Z,81.10
2023-02-14T01:33:59.670Z,75.10
2023-02-14T01:36:36.162Z,77.15
2023-02-14T01:39:06.752Z,75.00
2023-02-14T01:41:34.972Z,79.90
2023-02-14T01:44:29.039Z,81.50
2023-02-14T01:46:56.156Z,82.47
2023-02-14T01:49:27.198Z,70.70
2023-02-14T01:52:03.960Z,83.70
2023-02-14T01:54:32.378Z,75.18
2023-02-14T01:57:01.294Z,79.72
2023-02-14T01:59:31.289Z,80.00
2023-02-14T02:01:58.255Z,77.57
2023-02-14T02:04:44.766Z,78.47
2023-02-14T02:07:17.204Z,84.57
2023-02-14T02:09:47.468Z,75.38
2023-02-14T02:12:14.265Z,78.35
2023-02-14T02:14:41.658Z,74.05
2023-02-14T02:18:05.406Z,74.57
2023-02-14T02:21:19.754Z,81.63
2023-02-14T02:24:11.253Z,89.97
2023-02-14T02:26:55.784Z,85.35
2023-02-14T02:29:28.573Z,85.15
2023-02-14T02:32:10.150Z,77.93
2023-02-14T02:34:55.217Z,81.30
2023-02-14T02:37:40.708Z,87.60
2023-02-14T02:40:26.474Z,91.80
2023-02-14T02:42:53.077Z,95.82
2023-02-14T02:45:58.137Z,88.10
2023-02-14T02:48:26.510Z,91.75
2023-02-14T02:51:14.765Z,82.47
2023-02-14T02:53:53.294Z,86.43
2023-02-14T02:56:46.190Z,87.43
2023-02-14T02:59:21.774Z,94.93
2023-02-14T03:02:01.897Z,95.15
2023-02-14T03:04:47.413Z,95.22
2023-02-14T03:07:32.747Z,80.63
2023-02-14T03:10:00.673Z,79.05
2023-02-14T03:12:33.511Z,84.75
2023-02-14T03:15:22.100Z,81.65
2023-02-14T03:17:51.656Z,90.20
2023-02-14T03:20:24.835Z,84.90
2023-02-14T03:23:28.153Z,85.80
2023-02-14T03:26:00.744Z,81.43
2023-02-14T03:28:51.739Z,91.30
2023-02-14T03:31:20.818Z,78.55
2023-02-14T03:33:58.311Z,83.43
2023-02-14T03:37:17.531Z,85.07
2023-02-14T03:40:11.307Z,80.45
2023-02-14T03:42:50.430Z,76.93
2023-02-14T03:45:25.737Z,78.80
2023-02-14T03:47:53.930Z,81.57
2023-02-14T03:50:20.867Z,84.95
2023-02-14T03:52:50.901Z,82.28
2023-02-14T03:55:20.526Z,82.07
2023-02-14T04:00:18.471Z,71.78
2023-02-14T04:02:53.624Z,75.43
2023-02-14T04:05:24.794Z,73.88
2023-02-14T04:07:57.402Z,74.13
2023-02-14T04:10:24.858Z,73.45
2023-02-14T04:12:51.910Z,78.95
2023-02-14T04:15:18.835Z,85.18
2023-02-14T04:18:04.164Z,82.65
2023-02-14T04:20:31.567Z,74.20
2023-02-14T04:22:58.634Z,75.03
2023-02-14T04:25:25.374Z,77.90
2023-02-14T04:27:52.106Z,72.75
2023-02-14T04:30:21.007Z,72.38
2023-02-14T04:32:47.846Z,76.50
2023-02-14T04:35:14.940Z,75.03
2023-02-14T04:37:41.926Z,79.97
2023-02-14T04:40:09.201Z,72.90
2023-02-14T04:42:35.927Z,67.55
2023-02-14T04:45:04.356Z,68.55
2023-02-14T04:47:31.250Z,63.00
2023-02-14T04:49:58.116Z,63.65
2023-02-14T04:52:24.809Z,63.85
2023-02-14T04:54:51.509Z,69.35
2023-02-14T04:57:18.318Z,81.55
2023-02-14T04:59:45.119Z,76.43
2023-02-14T05:02:11.986Z,79.70
2023-02-14T05:04:38.703Z,67.88
2023-02-14T05:07:05.539Z,67.80
2023-02-14T05:09:32.413Z,64.78
2023-02-14T05:11:59.133Z,101.10
2023-02-14T05:14:25.834Z,64.70
2023-02-14T05:16:52.533Z,70.00
2023-02-14T05:19:19.253Z,61.42
2023-02-14T05:21:45.960Z,68.78
2023-02-14T05:24:13.011Z,64.53
2023-02-14T05:26:41.085Z,66.10
2023-02-14T05:29:08.301Z,64.07
2023-02-14T05:31:35.119Z,71.95
2023-02-14T05:34:02.169Z,68.40
2023-02-14T05:36:28.893Z,72.30
2023-02-14T05:38:55.656Z,72.50
2023-02-14T05:41:22.356Z,66.40
2023-02-14T05:43:49.132Z,62.67
2023-02-14T05:46:16.013Z,72.07
2023-02-14T05:48:42.670Z,64.35
2023-02-14T05:51:10.780Z,64.32
2023-02-14T05:53:37.924Z,71.32
2023-02-14T05:56:05.203Z,53.85
2023-02-14T05:58:32.188Z,64.03
2023-02-14T06:00:59.676Z,50.47
2023-02-14T06:03:26.993Z,60.47
2023-02-14T06:05:53.746Z,61.50
2023-02-14T06:08:20.490Z,61.53
2023-02-14T06:10:47.203Z,65.95
2023-02-14T06:13:14.055Z,66.95
2023-02-14T06:15:40.827Z,72.57
2023-02-14T06:18:08.018Z,69.97
2023-02-14T06:20:34.823Z,69.13
2023-02-14T06:23:02.015Z,60.88
2023-02-14T06:25:28.784Z,67.90
2023-02-14T06:27:57.049Z,70.40
2023-02-14T06:30:24.332Z,66.65
2023-02-14T06:32:51.592Z,75.68
2023-02-14T06:35:18.547Z,78.95
2023-02-14T06:37:45.461Z,71.40
2023-02-14T06:40:12.908Z,71.50
2023-02-14T06:42:40.097Z,69.13
2023-02-14T06:45:07.183Z,69.53
2023-02-14T06:47:35.133Z,71.10
2023-02-14T06:50:04.347Z,77.78
2023-02-14T06:52:34.220Z,76.20
2023-02-14T06:55:00.897Z,81.50
2023-02-14T06:57:28.084Z,76.82
2023-02-14T06:59:55.115Z,78.72
2023-02-14T07:02:24.677Z,68.15
2023-02-14T07:04:51.737Z,64.35
2023-02-14T07:07:18.410Z,68.60
2023-02-14T07:09:45.016Z,63.35
2023-02-14T07:12:11.691Z,66.40
2023-02-14T07:14:38.364Z,74.25
2023-02-14T07:17:05.183Z,73.53
2023-02-14T07:19:31.834Z,74.90
2023-02-14T07:21:59.107Z,76.43
2023-02-14T07:24:26.805Z,65.38
2023-02-14T07:26:53.520Z,67.40
2023-02-14T07:29:20.459Z,69.18
2023-02-14T07:31:47.270Z,66.80
2023-02-14T07:34:13.978Z,64.80
2023-02-14T07:36:40.764Z,67.93
2023-02-14T07:39:07.523Z,71.47
2023-02-14T07:41:34.267Z,68.93
2023-02-14T07:44:00.989Z,64.07
2023-02-14T07:46:27.706Z,56.20
2023-02-14T07:48:54.446Z,55.17
2023-02-14T07:51:21.232Z,56.33
2023-02-14T07:53:48.454Z,60.40
2023-02-14T07:56:15.167Z,59.03
2023-02-14T07:58:41.891Z,43.75
2023-02-14T08:01:08.780Z,46.35
2023-02-14T08:03:35.434Z,68.65
2023-02-14T08:06:02.117Z,40.90
2023-02-14T08:08:30.784Z,39.42
2023-02-14T08:10:58.077Z,34.78
2023-02-14T08:13:24.924Z,35.30
2023-02-14T08:16:07.666Z,36.45
2023-02-14T08:18:41.602Z,38.20
2023-02-14T08:21:10.216Z,39.35
2023-02-14T08:23:37.695Z,47.10
2023-02-14T08:26:07.260Z,40.15
2023-02-14T08:28:34.978Z,38.85
2023-02-14T08:31:03.361Z,66.05
2023-02-14T08:33:31.116Z,34.50
2023-02-14T08:35:57.799Z,32.55
2023-02-14T08:38:24.533Z,47.70
2023-02-14T08:40:51.281Z,37.85
2023-02-14T08:43:17.957Z,39.35
2023-02-14T08:45:45.041Z,43.95
2023-02-14T08:48:13.052Z,40.45
2023-02-14T08:50:40.295Z,46.00
2023-02-14T08:53:08.803Z,35.20
2023-02-14T08:55:36.111Z,43.00
2023-02-14T08:58:03.714Z,37.15
2023-02-14T09:00:31.304Z,45.50
2023-02-14T09:02:58.129Z,46.55
2023-02-14T09:05:25.186Z,43.60
2023-02-14T09:07:52.042Z,39.75
2023-02-14T09:10:18.890Z,38.35
2023-02-14T09:12:45.560Z,45.45
2023-02-14T09:15:12.803Z,41.45
2023-02-14T09:17:40.069Z,40.33
2023-02-14T09:20:11.278Z,33.83
2023-02-14T09:22:38.021Z,36.90
2023-02-14T09:25:05.239Z,32.50
2023-02-14T09:27:33.303Z,38.88
2023-02-14T09:30:00.283Z,39.60
2023-02-14T09:32:29.182Z,48.13
2023-02-14T09:35:14.723Z,37.38
2023-02-14T09:37:41.637Z,38.45
2023-02-14T09:40:09.040Z,35.40
2023-02-14T09:43:34.250Z,26.98
2023-02-14T09:46:02.582Z,37.97
2023-02-14T09:48:33.472Z,35.10
2023-02-14T09:51:06.043Z,41.30
2023-02-14T09:53:37.171Z,29.52
2023-02-14T09:56:22.306Z,35.50
2023-02-14T09:59:16.119Z,35.30
2023-02-14T10:04:38.184Z,27.50
2023-02-14T10:07:56.677Z,31.63
2023-02-14T10:10:30.960Z,49.58
2023-02-14T10:13:26.598Z,36.22
2023-02-14T10:16:27.303Z,36.95
2023-02-14T10:18:58.753Z,33.17
2023-02-14T10:21:36.638Z,49.03
2023-02-14T10:24:23.333Z,95.13
2023-02-14T10:26:50.756Z,51.67
2023-02-14T10:29:19.208Z,27.42
2023-02-14T10:32:00.498Z,31.73
2023-02-14T10:34:43.797Z,26.95
2023-02-14T10:37:32.330Z,31.13
2023-02-14T10:40:30.099Z,42.63
2023-02-14T10:42:59.546Z,43.20
2023-02-14T10:45:29.220Z,31.25
2023-02-14T10:48:32.947Z,39.38
2023-02-14T10:51:15.735Z,26.73
2023-02-14T10:53:54.485Z,32.45
2023-02-14T10:56:27.028Z,25.35
2023-02-14T10:58:55.840Z,37.33
2023-02-14T11:01:22.763Z,29.38
2023-02-14T11:04:04.242Z,33.92
2023-02-14T11:06:31.297Z,27.08
2023-02-14T11:08:58.884Z,34.72
2023-02-14T11:11:31.477Z,22.90
2023-02-14T11:13:58.156Z,31.90
2023-02-14T11:16:35.104Z,22.98
2023-02-14T11:19:14.806Z,21.00
2023-02-14T11:21:43.960Z,25.23
2023-02-14T11:27:10.698Z,31.60
2023-02-14T11:29:48.189Z,26.23
2023-02-14T11:32:20.709Z,26.63
2023-02-14T11:35:09.827Z,20.85
2023-02-14T11:37:42.873Z,30.08
2023-02-14T11:40:32.587Z,34.28
2023-02-14T11:43:14.010Z,24.52
2023-02-14T11:45:43.713Z,31.23
2023-02-14T11:48:39.585Z,20.35
2023-02-14T11:51:14.086Z,28.95
2023-02-14T11:53:56.051Z,75.20
2023-02-14T11:56:23.807Z,28.15
2023-02-14T11:59:16.676Z,43.17
2023-02-14T12:01:46.376Z,42.60
2023-02-14T12:04:32.771Z,32.28
2023-02-14T12:07:34.056Z,36.05
2023-02-14T12:10:17.768Z,24.98
2023-02-14T12:12:55.397Z,34.58
2023-02-14T12:15:25.215Z,25.15
2023-02-14T12:17:57.166Z,21.60
2023-02-14T12:20:43.014Z,28.85
2023-02-14T12:23:19.646Z,30.30
2023-02-14T12:25:54.774Z,18.02
2023-02-14T12:28:41.440Z,39.28
2023-02-14T12:31:12.148Z,22.52
2023-02-14T12:33:39.909Z,23.80
2023-02-14T12:36:17.806Z,19.17
2023-02-14T12:38:52.357Z,22.00
2023-02-14T12:41:27.850Z,13.80
2023-02-14T12:43:59.353Z,20.50
2023-02-14T12:46:47.960Z,20.30
2023-02-14T12:49:29.453Z,24.23
2023-02-14T12:54:37.664Z,18.73
2023-02-14T12:57:46.045Z,24.80
2023-02-14T13:00:30.903Z,20.25
2023-02-14T13:02:57.561Z,20.27
2023-02-14T13:05:51.738Z,24.55
2023-02-14T13:08:24.381Z,27.17
2023-02-14T13:11:00.239Z,33.97
2023-02-14T13:13:33.224Z,21.77
2023-02-14T13:16:27.325Z,34.72
2023-02-14T13:19:01.579Z,28.25
2023-02-14T13:21:31.652Z,22.17
2023-02-14T13:24:16.952Z,21.17
2023-02-14T13:26:46.271Z,24.33
2023-02-14T13:31:47.841Z,21.98
2023-02-14T13:34:28.188Z,25.20
2023-02-14T13:36:57.490Z,32.17
2023-02-14T13:39:45.599Z,57.20
2023-02-14T13:42:12.844Z,49.50
2023-02-14T13:44:44.079Z,31.90
2023-02-14T13:47:23.714Z,39.53
2023-02-14T13:49:54.102Z,16.20
2023-02-14T13:52:42.126Z,39.45
2023-02-14T13:55:20.513Z,20.13
2023-02-14T13:58:04.836Z,22.55
2023-02-14T14:00:44.185Z,24.88
2023-02-14T14:03:18.162Z,24.90
2023-02-14T14:06:10.718Z,17.33
2023-02-14T14:08:52.325Z,19.88
2023-02-14T14:13:58.859Z,16.50
2023-02-14T14:16:28.540Z,17.17
2023-02-14T14:19:01.069Z,25.15
2023-02-14T14:21:32.792Z,41.15
2023-02-14T14:24:18.062Z,39.33
2023-02-14T14:27:18.158Z,32.45
2023-02-14T14:32:34.783Z,44.72
2023-02-14T14:35:26.568Z,20.23
2023-02-14T14:37:57.516Z,31.48
2023-02-14T14:40:31.493Z,23.77
2023-02-14T14:43:14.325Z,25.63
2023-02-14T14:45:41.917Z,22.38
2023-02-14T14:48:14.403Z,21.40
2023-02-14T14:50:44.318Z,16.58
2023-02-14T14:53:21.696Z,26.23
2023-02-14T14:55:52.195Z,20.80
2023-02-14T14:58:35.145Z,28.02
2023-02-14T15:01:02.674Z,24.95
2023-02-14T15:03:29.881Z,21.55
2023-02-14T15:06:18.145Z,27.90
2023-02-14T15:08:45.562Z,52.05
2023-02-14T15:11:39.952Z,42.05
2023-02-14T15:14:11.192Z,28.02
2023-02-14T15:16:50.103Z,31.10
2023-02-14T15:19:21.834Z,32.15
2023-02-14T15:21:48.622Z,27.70
2023-02-14T15:24:16.789Z,36.95
2023-02-14T15:26:45.964Z,35.75
2023-02-14T15:29:25.274Z,25.73
2023-02-14T15:31:52.927Z,33.63
2023-02-14T15:34:23.837Z,36.92
2023-02-14T15:36:53.985Z,43.65
2023-02-14T15:39:22.755Z,42.63
2023-02-14T15:41:53.795Z,38.60
2023-02-14T15:44:24.977Z,54.20
2023-02-14T15:47:01.759Z,81.95
2023-02-14T15:49:34.991Z,65.88
2023-02-14T15:52:05.568Z,32.15
2023-02-14T15:54:41.914Z,47.78
2023-02-14T15:57:20.143Z,54.90
2023-02-14T15:59:47.369Z,33.17
2023-02-14T16:02:19.880Z,36.70
2023-02-14T16:04:46.637Z,71.90
2023-02-14T16:07:21.052Z,40.67
2023-02-14T16:09:48.584Z,32.47
2023-02-14T16:12:31.600Z,34.72
2023-02-14T16:15:20.200Z,41.33
2023-02-14T16:17:47.536Z,37.22
2023-02-14T16:20:43.414Z,46.70
2023-02-14T16:23:22.302Z,37.85
2023-02-14T16:25:49.554Z,41.95
2023-02-14T16:28:16.400Z,42.58
2023-02-14T16:30:44.661Z,39.70
2023-02-14T16:33:23.268Z,41.97
2023-02-14T16:35:50.606Z,46.30
2023-02-14T16:38:19.692Z,46.53
2023-02-14T16:40:54.569Z,35.58
2023-02-14T16:43:21.692Z,35.75
2023-02-14T16:45:48.720Z,32.45
2023-02-14T16:48:18.115Z,44.15
2023-02-14T16:53:21.680Z,27.55
2023-02-14T16:55:48.975Z,28.15
2023-02-14T16:58:15.833Z,37.28
2023-02-14T17:00:42.541Z,34.45
2023-02-14T17:03:11.550Z,33.95
2023-02-14T17:05:40.196Z,30.65
2023-02-14T17:08:09.149Z,38.60
2023-02-14T17:10:36.063Z,28.85
2023-02-14T17:13:03.508Z,32.10
2023-02-14T17:15:30.597Z,39.17
2023-02-14T17:18:01.835Z,47.63
2023-02-14T17:20:29.777Z,54.58
2023-02-14T17:22:57.603Z,44.10
2023-02-14T17:25:24.289Z,33.53
2023-02-14T17:27:51.080Z,37.20
2023-02-14T17:30:17.989Z,29.77
2023-02-14T17:32:44.982Z,56.97
2023-02-14T17:35:12.052Z,127.85
2023-02-14T17:37:38.741Z,122.20
2023-02-14T17:40:06.011Z,89.45
2023-02-14T17:42:33.847Z,56.75
2023-02-14T17:45:01.347Z,62.03
2023-02-14T17:47:29.501Z,70.13
2023-02-14T17:49:57.261Z,88.30
2023-02-14T17:52:24.598Z,61.42
2023-02-14T17:54:51.324Z,41.67
2023-02-14T17:57:18.065Z,46.03
2023-02-14T17:59:45.492Z,50.97
2023-02-14T18:02:12.692Z,40.75
2023-02-14T18:04:39.454Z,38.55
2023-02-14T18:07:06.207Z,44.25
2023-02-14T18:09:32.962Z,35.17
2023-02-14T18:11:59.661Z,39.83
2023-02-14T18:14:26.598Z,39.75
2023-02-14T18:16:53.257Z,44.67
2023-02-14T18:19:20.023Z,33.90
2023-02-14T18:21:46.773Z,35.95
2023-02-14T18:24:15.606Z,32.53
2023-02-14T18:26:43.191Z,35.17
2023-02-14T18:29:10.908Z,45.53
2023-02-14T18:31:39.518Z,47.97
2023-02-14T18:34:07.387Z,41.60
2023-02-14T18:36:39.788Z,45.70
2023-02-14T18:39:07.028Z,42.83
2023-02-14T18:41:33.804Z,35.17
2023-02-14T18:44:01.235Z,50.00
2023-02-14T18:46:31.330Z,44.60
2023-02-14T18:48:58.117Z,42.10
2023-02-14T18:51:28.097Z,44.60
2023-02-14T18:53:56.676Z,43.42
2023-02-14T18:56:26.598Z,44.00
2023-02-14T18:59:13.636Z,48.08
2023-02-14T19:01:43.447Z,36.53
2023-02-14T19:04:12.265Z,35.90
2023-02-14T19:06:40.963Z,41.72
2023-02-14T19:09:13.585Z,34.45
2023-02-14T19:11:40.903Z,35.40
2023-02-14T19:14:10.322Z,42.78
2023-02-14T19:19:11.011Z,33.38
2023-02-14T19:21:37.688Z,37.58
2023-02-14T19:24:09.381Z,35.25
2023-02-14T19:26:40.852Z,33.78
2023-02-14T19:29:13.071Z,43.22
2023-02-14T19:31:43.937Z,43.33
2023-02-14T19:34:23.203Z,44.08
2023-02-14T19:36:51.488Z,45.20
2023-02-14T19:39:19.181Z,41.97
2023-02-14T19:41:46.829Z,40.17
2023-02-14T19:44:14.422Z,56.33
2023-02-14T19:46:42.933Z,35.38
2023-02-14T19:49:15.058Z,36.05
2023-02-14T19:51:41.861Z,35.42
2023-02-14T19:54:12.738Z,39.67
2023-02-14T19:56:42.204Z,35.35
2023-02-14T19:59:09.605Z,35.38
2023-02-14T20:01:46.251Z,34.65
2023-02-14T20:04:16.165Z,43.55
2023-02-14T20:06:43.351Z,45.90
2023-02-14T20:09:10.037Z,37.28
2023-02-14T20:11:41.465Z,47.75
2023-02-14T20:14:08.801Z,54.97
2023-02-14T20:16:37.124Z,41.78
2023-02-14T20:19:12.139Z,44.45
2023-02-14T20:21:41.767Z,40.35
2023-02-14T20:24:09.364Z,37.80
2023-02-14T20:26:39.285Z,41.72
2023-02-14T20:29:06.955Z,37.33
2023-02-14T20:31:34.248Z,40.63
2023-02-14T20:34:01.695Z,38.75
2023-02-14T20:36:28.433Z,37.60
2023-02-14T20:38:59.819Z,37.42
2023-02-14T20:41:27.908Z,39.15
2023-02-14T20:43:55.552Z,37.22
2023-02-14T20:46:23.169Z,50.40
2023-02-14T20:48:51.078Z,37.58
2023-02-14T20:51:19.645Z,36.90
2023-02-14T20:53:46.679Z,39.90
2023-02-14T20:56:14.378Z,36.42
2023-02-14T20:58:41.494Z,39.05
2023-02-14T21:01:10.391Z,39.67
2023-02-14T21:03:37.627Z,41.22
2023-02-14T21:06:05.702Z,37.85
2023-02-14T21:08:33.235Z,38.17
2023-02-14T21:11:00.264Z,36.55
2023-02-14T21:13:27.226Z,39.95
2023-02-14T21:15:53.994Z,36.65
2023-02-14T21:18:21.046Z,39.85
2023-02-14T21:20:47.832Z,36.20
2023-02-14T21:23:14.597Z,35.30
2023-02-14T21:25:41.229Z,37.45
2023-02-14T21:28:07.882Z,38.25
2023-02-14T21:30:34.596Z,37.97
2023-02-14T21:33:01.310Z,37.22
2023-02-14T21:35:28.117Z,41.10
2023-02-14T21:37:54.778Z,35.92
2023-02-14T21:40:22.657Z,39.70
2023-02-14T21:42:50.411Z,34.95
2023-02-14T21:45:35.626Z,42.38
2023-02-14T21:48:20.826Z,33.00
2023-02-14T21:50:47.606Z,36.40
2023-02-14T21:53:14.346Z,32.88
2023-02-14T21:55:42.777Z,35.85
2023-02-14T21:58:09.503Z,48.28
2023-02-14T22:00:36.498Z,38.38
2023-02-14T22:03:03.214Z,38.92
2023-02-14T22:05:29.875Z,39.15
2023-02-14T22:07:56.513Z,31.88
2023-02-14T22:10:23.222Z,31.50
2023-02-14T22:12:49.965Z,29.88
2023-02-14T22:15:16.687Z,31.30
2023-02-14T22:17:43.627Z,29.48
2023-02-14T22:20:10.665Z,31.98
2023-02-14T22:22:37.341Z,27.20
2023-02-14T22:25:04.172Z,27.88
2023-02-14T22:27:30.851Z,30.42
2023-02-14T22:29:57.633Z,28.30
2023-02-14T22:32:24.362Z,31.83
2023-02-14T22:34:51.182Z,34.45
2023-02-14T22:37:17.855Z,34.60
2023-02-14T22:39:44.501Z,35.70
2023-02-14T22:42:11.229Z,35.35
2023-02-14T22:44:37.859Z,33.22
2023-02-14T22:47:04.591Z,34.28
2023-02-14T22:49:31.369Z,33.33
2023-02-14T22:51:58.007Z,33.92
2023-02-14T22:54:24.741Z,32.10
2023-02-14T22:56:51.542Z,31.83
2023-02-14T22:59:21.407Z,34.58
2023-02-14T23:01:49.200Z,32.38
2023-02-14T23:04:17.801Z,30.33
2023-02-14T23:06:44.573Z,29.33
2023-02-14T23:09:12.731Z,29.42
2023-02-14T23:11:40.815Z,33.97
2023-02-14T23:14:26.724Z,26.65
2023-02-14T23:17:12.227Z,29.25
2023-02-14T23:19:57.675Z,27.40
2023-02-14T23:22:29.480Z,27.08
2023-02-14T23:24:58.361Z,31.08
2023-02-14T23:27:37.207Z,23.67
2023-02-14T23:30:06.431Z,23.35
2023-02-14T23:32:33.265Z,24.58
2023-02-14T23:35:00.122Z,21.98
2023-02-14T23:37:26.931Z,25.40
2023-02-14T23:39:53.633Z,20.85
2023-02-14T23:42:20.513Z,22.42
2023-02-14T23:44:47.604Z,24.92
2023-02-14T23:47:14.705Z,21.52
2023-02-14T23:49:41.788Z,21.95
2023-02-14T23:52:12.431Z,24.08
2023-02-14T23:54:39.500Z,18.60
2023-02-14T23:57:07.419Z,18.63
2023-02-14T23:59:34.657Z,20.65
